Time;durP1;ratioP1;P1;durP2;ratioP2;P2;SDS_P1;SDS_P2;PMS_P1;PMS_P2;Temp;Humidity;BMP_temperature;BMP_pressure;BME280_temperature;BME280_humidity;BME280_pressure;Samples;Min_cycle;Max_cycle;Signal;HPM_P1;HPM_P2
2022/06/10 00:01:19;;;;;;;26.88;12.40;;;12.70;99.90;;;;;;5033593;28;20038;-80
2022/06/10 00:03:45;;;;;;;44.50;14.05;;;12.80;99.90;;;;;;5033667;28;20048;-80
2022/06/10 00:06:12;;;;;;;23.38;11.23;;;12.80;99.90;;;;;;5033398;28;20393;-80
2022/06/10 00:08:44;;;;;;;34.47;13.85;;;12.80;99.90;;;;;;5032360;28;20555;-80
2022/06/10 00:11:11;;;;;;;35.67;12.93;;;12.70;99.90;;;;;;5053085;28;20452;-80
2022/06/10 00:13:42;;;;;;;33.72;12.35;;;12.80;99.90;;;;;;5037422;28;20056;-80
2022/06/10 00:16:08;;;;;;;39.65;13.00;;;12.70;99.90;;;;;;5037685;28;20052;-80
2022/06/10 00:18:35;;;;;;;31.35;13.00;;;12.70;99.90;;;;;;5037515;28;20045;-80
2022/06/10 00:21:03;;;;;;;35.63;14.75;;;12.70;99.90;;;;;;5037546;28;20037;-81
2022/06/10 00:23:29;;;;;;;28.52;12.55;;;12.70;99.90;;;;;;5036233;28;20053;-80
2022/06/10 00:25:54;;;;;;;32.05;13.52;;;12.60;99.90;;;;;;5036407;28;20041;-80
2022/06/10 00:28:20;;;;;;;29.50;12.65;;;12.60;99.90;;;;;;5037395;28;20045;-80
2022/06/10 00:30:46;;;;;;;34.22;12.57;;;12.60;99.90;;;;;;5037464;28;20102;-80
2022/06/10 00:33:12;;;;;;;36.58;12.98;;;12.60;99.90;;;;;;5037142;28;20045;-80
2022/06/10 00:35:39;;;;;;;31.23;13.90;;;12.60;99.90;;;;;;5037371;28;20045;-80
2022/06/10 00:38:05;;;;;;;33.28;13.40;;;12.50;99.90;;;;;;5036980;28;20160;-80
2022/06/10 00:40:37;;;;;;;24.33;12.23;;;12.50;99.90;;;;;;5037233;28;20179;-80
2022/06/10 00:43:03;;;;;;;31.63;12.45;;;12.50;99.90;;;;;;5036155;28;20555;-80
2022/06/10 00:45:59;;;;;;;40.28;14.18;;;12.50;99.90;;;;;;5037126;28;20124;-80
2022/06/10 00:48:47;;;;;;;38.30;14.02;;;12.50;99.90;;;;;;5035746;28;20046;-80
2022/06/10 00:51:21;;;;;;;36.53;14.23;;;12.40;99.90;;;;;;5035780;28;20049;-80
2022/06/10 00:53:54;;;;;;;32.70;13.27;;;12.40;99.90;;;;;;5035844;28;20045;-80
2022/06/10 00:56:24;;;;;;;26.73;12.88;;;12.40;99.90;;;;;;5037185;28;20042;-80
2022/06/10 00:58:59;;;;;;;35.67;13.38;;;12.40;99.90;;;;;;5036818;28;20124;-80
2022/06/10 01:01:26;;;;;;;38.25;15.05;;;12.40;99.90;;;;;;5035620;28;20124;-80
2022/06/10 01:03:53;;;;;;;31.77;13.13;;;12.30;99.90;;;;;;5036692;28;20103;-80
2022/06/10 01:06:19;;;;;;;33.70;13.27;;;12.30;99.90;;;;;;5036689;28;20037;-81
2022/06/10 01:08:47;;;;;;;32.05;12.85;;;12.30;99.90;;;;;;5036732;28;20090;-81
2022/06/10 01:11:38;;;;;;;37.30;13.45;;;12.30;99.90;;;;;;5036551;28;20077;-80
2022/06/10 01:14:45;;;;;;;36.30;13.20;;;12.30;99.90;;;;;;5036622;28;20400;-80
2022/06/10 01:17:10;;;;;;;25.65;12.25;;;12.30;99.90;;;;;;5027015;28;20085;-80
2022/06/10 01:19:51;;;;;;;36.38;13.25;;;12.30;99.90;;;;;;5036543;28;20092;-80
2022/06/10 01:22:54;;;;;;;35.72;13.18;;;12.30;99.90;;;;;;5034767;28;20045;-81
2022/06/10 01:25:44;;;;;;;28.83;13.13;;;12.30;99.90;;;;;;5036951;28;20057;-81
2022/06/10 01:28:25;;;;;;;28.67;14.02;;;12.30;99.90;;;;;;5035357;28;20056;-80
2022/06/10 01:31:42;;;;;;;37.13;13.40;;;12.20;99.90;;;;;;5036295;28;20132;-80
2022/06/10 01:34:26;;;;;;;36.17;14.77;;;12.20;99.90;;;;;;5002285;28;20060;-81
2022/06/10 01:37:06;;;;;;;35.50;14.52;;;12.10;99.90;;;;;;5036037;28;20057;-80
2022/06/10 01:39:42;;;;;;;37.65;14.00;;;12.20;99.90;;;;;;5036199;28;20125;-80
2022/06/10 01:42:11;;;;;;;27.63;12.70;;;12.10;99.90;;;;;;5034812;28;20053;-80
2022/06/10 01:45:03;;;;;;;39.17;14.15;;;12.10;99.90;;;;;;5034937;28;20485;-80
2022/06/10 01:47:37;;;;;;;40.95;14.27;;;12.10;99.90;;;;;;5035986;28;20481;-80
2022/06/10 01:50:33;;;;;;;35.47;13.18;;;12.00;99.90;;;;;;5034847;28;20077;-80
2022/06/10 01:53:24;;;;;;;33.08;13.63;;;12.00;99.90;;;;;;5034805;28;20103;-80
2022/06/10 01:56:05;;;;;;;38.85;12.93;;;12.00;99.90;;;;;;5034550;28;20124;-80
2022/06/10 01:58:38;;;;;;;31.20;12.68;;;12.10;99.90;;;;;;5035792;28;20045;-80
2022/06/10 02:01:19;;;;;;;35.90;13.25;;;12.00;99.90;;;;;;5034245;28;20050;-80
2022/06/10 02:03:58;;;;;;;36.28;13.25;;;12.00;99.90;;;;;;5035637;28;20524;-80
2022/06/10 02:06:38;;;;;;;33.78;14.45;;;12.00;99.90;;;;;;5035617;28;20049;-80
2022/06/10 02:09:10;;;;;;;37.17;13.85;;;12.00;99.90;;;;;;5034531;28;20206;-80
2022/06/10 02:11:40;;;;;;;32.08;13.93;;;11.90;99.90;;;;;;5035471;28;20049;-80
2022/06/10 02:14:12;;;;;;;35.65;14.43;;;12.00;99.90;;;;;;5034208;28;20045;-80
2022/06/10 02:16:44;;;;;;;31.17;12.80;;;11.90;99.90;;;;;;5034189;28;20037;-80
2022/06/10 02:19:42;;;;;;;37.20;14.98;;;11.90;99.90;;;;;;5035274;28;20436;-80
2022/06/10 02:22:13;;;;;;;39.55;15.63;;;11.90;99.90;;;;;;5035572;28;20045;-80
2022/06/10 02:24:44;;;;;;;38.67;14.73;;;11.80;99.90;;;;;;5034318;28;20112;-80
2022/06/10 02:27:15;;;;;;;33.60;14.60;;;11.80;99.90;;;;;;5035267;28;20041;-80
2022/06/10 02:29:51;;;;;;;35.25;14.82;;;11.80;99.90;;;;;;5034092;28;20401;-80
2022/06/10 02:32:17;;;;;;;35.22;13.88;;;11.80;99.90;;;;;;5033535;28;20543;-80
2022/06/10 02:34:43;;;;;;;35.08;14.20;;;11.70;99.90;;;;;;5032938;28;20408;-80
2022/06/10 02:37:42;;;;;;;47.00;14.02;;;11.80;99.90;;;;;;5033691;28;20049;-80
2022/06/10 02:40:29;;;;;;;38.33;14.10;;;11.70;99.90;;;;;;5035062;28;20045;-80
2022/06/10 02:42:55;;;;;;;35.47;13.23;;;11.80;99.90;;;;;;5033883;28;20130;-80
2022/06/10 02:45:41;;;;;;;35.50;14.23;;;11.80;99.90;;;;;;5033599;28;20134;-80
2022/06/10 02:48:28;;;;;;;36.63;13.82;;;11.80;99.90;;;;;;5033655;28;20045;-80
2022/06/10 02:50:53;;;;;;;42.10;14.65;;;11.70;99.90;;;;;;5033693;28;20091;-80
2022/06/10 02:53:19;;;;;;;37.35;14.18;;;11.70;99.90;;;;;;5034577;28;20497;-80
2022/06/10 02:55:45;;;;;;;30.90;13.95;;;11.80;99.90;;;;;;5034498;28;20083;-80
2022/06/10 03:01:34;;;;;;;41.38;13.13;;;11.70;99.90;;;;;;5032517;28;20056;-79
2022/06/10 03:04:25;;;;;;;41.85;13.75;;;11.80;99.90;;;;;;5031766;28;20053;-79
2022/06/10 03:07:23;;;;;;;41.70;14.43;;;11.80;99.90;;;;;;5032576;28;20106;-80
2022/06/10 03:10:07;;;;;;;30.45;13.30;;;11.70;99.90;;;;;;5034471;28;20112;-80
2022/06/10 03:12:49;;;;;;;40.22;14.55;;;11.70;99.90;;;;;;5033025;28;20053;-80
2022/06/10 03:15:27;;;;;;;31.42;14.90;;;11.70;99.90;;;;;;5032808;28;20057;-80
2022/06/10 03:18:12;;;;;;;37.35;14.23;;;11.70;99.90;;;;;;5034233;28;20060;-80
2022/06/10 03:21:18;;;;;;;41.10;14.43;;;11.60;99.90;;;;;;5033897;28;20393;-80
2022/06/10 03:24:05;;;;;;;38.13;14.95;;;11.60;99.90;;;;;;5034222;28;20057;-80
2022/06/10 03:26:48;;;;;;;37.35;15.45;;;11.60;99.90;;;;;;5033899;28;20477;-80
2022/06/10 03:29:47;;;;;;;36.72;15.45;;;11.60;99.90;;;;;;5033837;28;20515;-80
2022/06/10 03:32:23;;;;;;;42.45;14.68;;;11.60;99.90;;;;;;5032861;28;20041;-80
2022/06/10 03:35:24;;;;;;;42.58;15.30;;;11.60;99.90;;;;;;5033977;28;20083;-80
2022/06/10 03:37:50;;;;;;;35.05;14.82;;;11.60;99.90;;;;;;5000890;28;20049;-80
2022/06/10 03:40:24;;;;;;;38.20;14.02;;;11.60;99.90;;;;;;5032945;28;20049;-80
2022/06/10 03:42:54;;;;;;;36.17;13.98;;;11.60;99.90;;;;;;5033682;28;20064;-79
2022/06/10 03:45:23;;;;;;;38.75;14.88;;;11.60;99.90;;;;;;5033644;28;20056;-79
2022/06/10 03:47:49;;;;;;;45.55;15.18;;;11.70;99.90;;;;;;5033548;28;20509;-80
2022/06/10 03:50:18;;;;;;;35.75;14.40;;;11.70;99.90;;;;;;5033780;28;20037;-79
2022/06/10 03:52:45;;;;;;;37.40;15.25;;;11.80;99.90;;;;;;5033606;28;20041;-80
2022/06/10 03:55:16;;;;;;;45.90;14.70;;;11.80;99.90;;;;;;5033394;28;20519;-80
2022/06/10 03:57:42;;;;;;;36.17;13.75;;;11.80;99.90;;;;;;5033674;28;20049;-80
2022/06/10 04:00:09;;;;;;;37.05;13.00;;;11.80;99.90;;;;;;5033528;28;20138;-80
2022/06/10 04:02:35;;;;;;;38.05;13.52;;;11.90;99.90;;;;;;5033464;28;20504;-80
2022/06/10 04:05:00;;;;;;;33.88;14.13;;;11.90;99.90;;;;;;5033240;28;20041;-80
2022/06/10 04:07:26;;;;;;;38.90;13.35;;;12.00;99.90;;;;;;5032420;28;20041;-80
2022/06/10 04:09:52;;;;;;;35.67;13.45;;;12.10;99.90;;;;;;5032344;28;20037;-79
2022/06/10 04:12:19;;;;;;;40.47;14.20;;;12.30;99.90;;;;;;5032134;28;20045;-80
2022/06/10 04:14:45;;;;;;;37.00;14.55;;;12.40;99.90;;;;;;5032009;28;20508;-80
2022/06/10 04:17:11;;;;;;;40.33;13.40;;;12.50;99.90;;;;;;5032227;28;20038;-80
2022/06/10 04:19:37;;;;;;;36.03;12.52;;;12.60;99.90;;;;;;5033502;28;20125;-79
2022/06/10 04:22:03;;;;;;;38.60;12.55;;;12.70;99.90;;;;;;5032019;28;20478;-80
2022/06/10 04:24:29;;;;;;;39.50;12.73;;;12.70;99.90;;;;;;5031990;28;20053;-80
2022/06/10 04:26:54;;;;;;;36.45;12.82;;;12.80;99.90;;;;;;5033387;28;20042;-80
2022/06/10 04:29:20;;;;;;;39.95;12.60;;;12.80;99.90;;;;;;5031927;28;20049;-80
2022/06/10 04:31:47;;;;;;;37.58;12.68;;;12.80;99.90;;;;;;5033401;28;20125;-80
2022/06/10 04:34:13;;;;;;;41.50;12.50;;;12.80;99.90;;;;;;5033064;28;20049;-80
2022/06/10 04:36:39;;;;;;;26.90;11.70;;;12.90;99.90;;;;;;5033143;28;20060;-79
2022/06/10 04:39:05;;;;;;;33.17;11.55;;;12.90;99.90;;;;;;5031645;28;20432;-80
2022/06/10 04:41:31;;;;;;;34.72;11.77;;;12.90;99.90;;;;;;5031813;28;20045;-80
2022/06/10 04:43:57;;;;;;;31.88;11.27;;;12.90;99.90;;;;;;5033220;28;20124;-80
2022/06/10 04:46:32;;;;;;;34.25;11.32;;;12.90;99.90;;;;;;5031935;28;20120;-80
2022/06/10 04:48:59;;;;;;;28.48;11.05;;;12.90;99.90;;;;;;5033003;28;20049;-80
2022/06/10 04:51:25;;;;;;;32.67;11.93;;;13.00;99.90;;;;;;5031896;28;20061;-79
2022/06/10 04:53:51;;;;;;;30.60;11.00;;;13.00;99.90;;;;;;5031950;28;20045;-80
2022/06/10 04:56:17;;;;;;;30.50;12.55;;;13.00;99.90;;;;;;5032269;28;20481;-80
2022/06/10 04:58:42;;;;;;;33.33;11.13;;;13.10;99.90;;;;;;5035458;28;20060;-79
2022/06/10 05:01:08;;;;;;;39.70;12.23;;;13.10;99.90;;;;;;5036760;28;20046;-79
2022/06/10 05:03:35;;;;;;;32.28;11.38;;;13.10;99.90;;;;;;5035257;28;20047;-80
2022/06/10 05:06:00;;;;;;;35.72;11.65;;;13.10;99.90;;;;;;5036493;28;20053;-79
2022/06/10 05:08:26;;;;;;;38.17;12.73;;;13.10;99.90;;;;;;5036724;28;20037;-79
2022/06/10 05:10:52;;;;;;;26.52;10.45;;;13.20;99.90;;;;;;5035489;28;20453;-79
2022/06/10 05:13:20;;;;;;;36.30;11.88;;;13.20;99.90;;;;;;5035477;28;20048;-79
2022/06/10 05:15:46;;;;;;;34.97;10.60;;;13.20;99.90;;;;;;5035253;28;20037;-79
2022/06/10 05:18:15;;;;;;;32.33;10.90;;;13.30;99.90;;;;;;5034943;28;20056;-79
2022/06/10 05:20:42;;;;;;;33.78;11.40;;;13.30;99.90;;;;;;5034995;28;20100;-79
2022/06/10 05:23:09;;;;;;;31.55;10.65;;;13.40;99.90;;;;;;5036453;28;20053;-80
2022/06/10 05:25:35;;;;;;;30.13;11.18;;;13.40;99.90;;;;;;5036048;28;20404;-80
2022/06/10 05:28:02;;;;;;;29.45;10.45;;;13.40;99.90;;;;;;5035119;28;20049;-80
2022/06/10 05:30:30;;;;;;;36.05;10.90;;;13.40;99.90;;;;;;5035005;28;20366;-79
2022/06/10 05:33:00;;;;;;;33.22;11.90;;;13.50;99.90;;;;;;5036001;28;20464;-80
2022/06/10 05:35:26;;;;;;;28.00;10.80;;;13.50;99.90;;;;;;5036009;28;20572;-79
2022/06/10 05:37:52;;;;;;;29.80;10.52;;;13.60;99.90;;;;;;5035694;28;20132;-79
2022/06/10 05:40:20;;;;;;;37.92;10.77;;;13.60;99.90;;;;;;5036158;28;20049;-79
2022/06/10 05:42:45;;;;;;;28.73;10.07;;;13.70;99.90;;;;;;5035788;28;20556;-80
2022/06/10 05:45:14;;;;;;;30.52;9.85;;;13.70;99.90;;;;;;5051263;28;20133;-80
2022/06/10 05:47:41;;;;;;;27.65;10.32;;;13.80;99.90;;;;;;5034546;28;20045;-80
2022/06/10 05:50:12;;;;;;;39.70;10.35;;;13.80;99.90;;;;;;5034452;28;20041;-80
2022/06/10 05:52:39;;;;;;;30.02;10.80;;;13.90;99.90;;;;;;5034351;28;20080;-80
2022/06/10 05:55:08;;;;;;;33.05;9.90;;;13.90;99.90;;;;;;5035654;28;20064;-79
2022/06/10 05:57:33;;;;;;;32.45;11.15;;;14.00;99.90;;;;;;5034486;28;20140;-80
2022/06/10 05:59:59;;;;;;;29.25;9.93;;;14.10;99.90;;;;;;5035751;28;20057;-80
2022/06/10 06:02:25;;;;;;;37.30;11.00;;;14.10;99.90;;;;;;5035748;28;20038;-80
2022/06/10 06:04:52;;;;;;;31.90;11.40;;;14.20;99.90;;;;;;5034127;28;20053;-80
2022/06/10 06:07:21;;;;;;;34.47;10.88;;;14.30;99.90;;;;;;5034043;28;20410;-80
2022/06/10 06:09:47;;;;;;;40.65;11.40;;;14.30;99.90;;;;;;5035294;28;20480;-80
2022/06/10 06:12:13;;;;;;;26.00;9.63;;;14.40;99.90;;;;;;5034262;28;20045;-80
2022/06/10 06:14:39;;;;;;;35.03;11.45;;;14.40;99.90;;;;;;5034309;28;20052;-79
2022/06/10 06:17:05;;;;;;;35.08;10.45;;;14.50;99.90;;;;;;5035149;28;20064;-79
2022/06/10 06:19:31;;;;;;;38.63;10.75;;;14.40;99.90;;;;;;5034023;28;20057;-79
2022/06/10 06:21:57;;;;;;;40.20;10.80;;;14.40;99.90;;;;;;5034135;28;20052;-80
2022/06/10 06:24:24;;;;;;;36.53;10.27;;;14.40;99.90;;;;;;5035038;28;20124;-80
2022/06/10 06:26:51;;;;;;;30.90;10.25;;;14.50;99.90;;;;;;5034243;28;20043;-80
2022/06/10 06:29:17;;;;;;;40.53;11.30;;;14.50;99.90;;;;;;5035172;28;20132;-80
2022/06/10 06:31:43;;;;;;;30.27;9.15;;;14.50;99.90;;;;;;5035228;28;20108;-80
2022/06/10 06:34:09;;;;;;;45.97;11.40;;;14.50;99.90;;;;;;5035151;28;20437;-80
2022/06/10 06:36:45;;;;;;;32.95;10.65;;;14.50;99.90;;;;;;5034853;28;20049;-80
2022/06/10 06:39:12;;;;;;;39.80;11.13;;;14.50;99.90;;;;;;5034679;28;20390;-80
2022/06/10 06:41:37;;;;;;;36.28;10.38;;;14.60;99.90;;;;;;5034619;28;20396;-80
2022/06/10 06:44:05;;;;;;;34.55;10.48;;;14.50;99.90;;;;;;5034669;28;20564;-80
2022/06/10 06:46:33;;;;;;;30.85;11.38;;;14.50;99.90;;;;;;5033787;28;20046;-80
2022/06/10 06:49:00;;;;;;;42.80;11.30;;;14.60;99.90;;;;;;5036500;28;20037;-83
2022/06/10 06:51:27;;;;;;;36.65;12.00;;;14.60;99.90;;;;;;5034537;28;20531;-81
2022/06/10 06:53:52;;;;;;;28.90;11.35;;;14.60;99.90;;;;;;5033190;28;20049;-81
2022/06/10 06:56:18;;;;;;;33.65;12.27;;;14.70;99.90;;;;;;5034717;28;20041;-80
2022/06/10 06:58:44;;;;;;;31.45;11.00;;;14.70;99.90;;;;;;5033097;28;20049;-80
2022/06/10 07:01:09;;;;;;;41.17;13.13;;;14.80;99.90;;;;;;5033105;28;20049;-80
2022/06/10 07:03:35;;;;;;;46.00;13.85;;;14.80;99.90;;;;;;5033357;28;20049;-80
2022/06/10 07:06:01;;;;;;;37.03;12.60;;;14.80;99.90;;;;;;5033001;28;20095;-81
2022/06/10 07:08:36;;;;;;;36.00;13.00;;;14.80;99.90;;;;;;5033164;28;20136;-81
2022/06/10 07:11:03;;;;;;;32.15;12.85;;;14.90;99.90;;;;;;5034720;28;20547;-81
2022/06/10 07:13:29;;;;;;;38.13;14.18;;;15.00;99.90;;;;;;5034390;28;20048;-81
2022/06/10 07:15:56;;;;;;;38.92;14.95;;;15.00;99.90;;;;;;5034353;28;20045;-81
2022/06/10 07:18:21;;;;;;;47.75;15.13;;;15.00;99.90;;;;;;5034242;28;20389;-81
2022/06/10 07:20:48;;;;;;;46.72;15.63;;;15.10;99.90;;;;;;5032546;28;20401;-81
2022/06/10 07:23:14;;;;;;;39.85;15.77;;;15.10;99.90;;;;;;5032871;28;20049;-81
2022/06/10 07:25:40;;;;;;;36.05;15.95;;;15.10;99.90;;;;;;5032905;28;20471;-81
2022/06/10 07:28:07;;;;;;;49.25;17.13;;;15.20;99.90;;;;;;5032781;28;20084;-80
2022/06/10 07:30:34;;;;;;;41.45;16.90;;;15.20;99.90;;;;;;5033850;28;20436;-81
2022/06/10 07:33:00;;;;;;;40.65;16.75;;;15.20;99.90;;;;;;5032910;28;20132;-80
2022/06/10 07:35:27;;;;;;;35.03;16.38;;;15.20;99.90;;;;;;5032722;28;20053;-80
2022/06/10 07:37:53;;;;;;;41.92;16.80;;;15.20;99.90;;;;;;5032342;28;20485;-82
2022/06/10 07:43:07;;;;;;;41.50;17.13;;;15.20;99.90;;;;;;5040025;28;20068;-80
2022/06/10 07:45:33;;;;;;;57.42;18.10;;;15.20;99.90;;;;;;5037097;28;20450;-80
2022/06/10 07:47:58;;;;;;;42.05;16.88;;;15.20;99.90;;;;;;5032336;28;20041;-80
2022/06/10 07:50:26;;;;;;;49.70;18.23;;;15.30;99.90;;;;;;5032121;28;20444;-79
2022/06/10 07:52:51;;;;;;;31.33;15.13;;;15.30;99.90;;;;;;5032428;28;20143;-80
2022/06/10 07:55:18;;;;;;;37.13;15.25;;;15.30;99.90;;;;;;5032086;28;20456;-80
2022/06/10 07:57:44;;;;;;;38.60;15.48;;;15.40;99.90;;;;;;5033425;28;20050;-80
2022/06/10 08:00:12;;;;;;;30.25;14.10;;;15.50;99.90;;;;;;5033513;28;20052;-80
2022/06/10 08:02:38;;;;;;;35.80;14.30;;;15.50;99.90;;;;;;5032219;28;20453;-82
2022/06/10 08:05:06;;;;;;;31.92;14.10;;;15.60;99.90;;;;;;5031979;28;20041;-80
2022/06/10 08:07:32;;;;;;;32.33;13.35;;;15.70;99.90;;;;;;5032251;28;20068;-80
2022/06/10 08:09:57;;;;;;;26.02;13.60;;;15.90;99.90;;;;;;5032187;28;20075;-80
2022/06/10 08:12:23;;;;;;;34.90;13.13;;;16.10;99.90;;;;;;5031902;28;20042;-80
2022/06/10 08:14:49;;;;;;;31.60;14.93;;;16.20;99.90;;;;;;5031930;28;20084;-80
2022/06/10 08:17:14;;;;;;;33.97;14.15;;;16.10;99.90;;;;;;5032920;28;20042;-81
2022/06/10 08:19:40;;;;;;;33.40;13.20;;;16.10;99.90;;;;;;5031977;28;20488;-81
2022/06/10 08:24:51;;;;;;;27.80;14.15;;;16.30;99.90;;;;;;5031807;28;20053;-82
2022/06/10 08:27:17;;;;;;;28.92;14.07;;;16.30;99.90;;;;;;5032038;28;20037;-80
2022/06/10 08:29:44;;;;;;;29.92;14.68;;;16.40;99.90;;;;;;5031947;28;20053;-80
2022/06/10 08:32:09;;;;;;;30.23;15.15;;;16.40;99.90;;;;;;5035335;28;20397;-80
2022/06/10 08:34:36;;;;;;;35.65;17.45;;;16.40;99.90;;;;;;5036894;28;20179;-81
2022/06/10 08:37:02;;;;;;;43.30;17.05;;;16.60;99.90;;;;;;5036570;28;20420;-81
2022/06/10 08:39:28;;;;;;;28.33;15.50;;;16.70;99.90;;;;;;5035682;28;20413;-81
2022/06/10 08:42:22;;;;;;;30.58;15.55;;;17.00;99.90;;;;;;5035514;28;20038;-81
2022/06/10 08:44:53;;;;;;;27.27;14.90;;;17.20;99.90;;;;;;5037028;28;20087;-81
2022/06/10 08:47:30;;;;;;;28.83;14.52;;;17.30;99.90;;;;;;5040264;28;20049;-81
2022/06/10 08:50:20;;;;;;;27.05;14.50;;;17.30;99.90;;;;;;5055479;28;20492;-82
2022/06/10 08:52:48;;;;;;;24.67;13.55;;;17.20;99.90;;;;;;5055369;28;20059;-82
2022/06/10 08:55:36;;;;;;;25.63;12.18;;;17.00;99.90;;;;;;5055212;28;20092;-81
2022/06/10 08:58:12;;;;;;;24.33;12.55;;;16.90;99.90;;;;;;5055332;28;20493;-81
2022/06/10 09:00:40;;;;;;;24.42;13.15;;;16.80;99.90;;;;;;5054867;28;20033;-81
2022/06/10 09:03:29;;;;;;;25.30;14.40;;;16.80;99.90;;;;;;5046180;28;20049;-82
2022/06/10 09:06:00;;;;;;;33.80;15.98;;;16.70;99.90;;;;;;5046955;28;20094;-81
2022/06/10 09:08:31;;;;;;;35.75;16.33;;;16.60;99.90;;;;;;5040656;28;20057;-81
2022/06/10 09:11:02;;;;;;;30.35;17.23;;;16.60;99.90;;;;;;5034967;28;20080;-81
2022/06/10 09:13:45;;;;;;;42.35;18.58;;;16.50;99.90;;;;;;5036222;28;20091;-81
2022/06/10 09:16:23;;;;;;;37.95;17.83;;;16.50;99.90;;;;;;5035294;28;20041;-80
2022/06/10 09:19:06;;;;;;;35.72;17.13;;;16.60;99.90;;;;;;5052840;28;20051;-80
2022/06/10 09:21:52;;;;;;;;;;;16.60;99.90;;;;;;5040396;28;20037;-80
2022/06/10 09:24:24;;;;;;;35.45;17.05;;;16.60;99.90;;;;;;5044224;28;19964;-81
2022/06/10 09:27:04;;;;;;;37.33;18.23;;;16.50;99.90;;;;;;5035014;28;20041;-80
2022/06/10 09:29:30;;;;;;;43.00;18.50;;;16.60;99.90;;;;;;5054503;28;20041;-81
2022/06/10 09:32:08;;;;;;;40.15;17.15;;;16.60;99.90;;;;;;5055858;28;20044;-80
2022/06/10 09:34:46;;;;;;;34.60;17.42;;;16.60;99.90;;;;;;5056069;28;20074;-79
2022/06/10 09:37:17;;;;;;;45.95;18.92;;;16.60;99.90;;;;;;5055517;28;20057;-79
2022/06/10 09:43:12;;;;;;;43.03;18.58;;;16.50;99.90;;;;;;5035380;28;20056;-80
2022/06/10 09:45:49;;;;;;;40.55;17.83;;;16.60;99.90;;;;;;5035580;28;20551;-80
2022/06/10 09:48:33;;;;;;;36.30;17.40;;;16.70;99.90;;;;;;5045729;28;20049;-80
2022/06/10 09:51:18;;;;;;;38.00;17.42;;;16.80;99.90;;;;;;5054432;28;20049;-81
2022/06/10 09:53:58;;;;;;;39.80;18.98;;;16.90;99.90;;;;;;5051243;28;20096;-81
2022/06/10 09:57:05;;;;;;;32.97;17.27;;;16.90;99.90;;;;;;5038449;28;20037;-81
2022/06/10 09:59:38;;;;;;;42.72;19.58;;;17.00;99.90;;;;;;4987053;28;20046;-81
2022/06/10 10:02:40;;;;;;;36.63;17.38;;;17.00;99.90;;;;;;4974659;28;20047;-81
2022/06/10 10:05:14;;;;;;;41.78;18.27;;;17.00;99.90;;;;;;5017293;28;20053;-81
2022/06/10 10:07:52;;;;;;;50.33;20.52;;;17.10;99.90;;;;;;5033960;28;20049;-81
2022/06/10 10:10:48;;;;;;;41.58;20.77;;;17.10;99.90;;;;;;5033984;28;20053;-81
2022/06/10 10:13:40;;;;;;;39.42;19.17;;;17.30;99.90;;;;;;5033891;28;20057;-81
2022/06/10 10:16:18;;;;;;;46.92;18.95;;;17.40;99.90;;;;;;5035144;28;20128;-81
2022/06/10 10:19:24;;;;;;;41.70;19.10;;;17.50;99.90;;;;;;5048296;28;20484;-81
2022/06/10 10:22:00;;;;;;;39.40;18.13;;;17.50;99.90;;;;;;5033827;28;20056;-81
2022/06/10 10:24:26;;;;;;;42.60;17.95;;;17.60;99.90;;;;;;5033954;28;20053;-81
2022/06/10 10:26:54;;;;;;;37.05;18.08;;;17.50;99.90;;;;;;5035066;28;20037;-80
2022/06/10 10:29:20;;;;;;;39.90;17.95;;;17.40;99.90;;;;;;5033624;28;20046;-81
2022/06/10 10:32:10;;;;;;;37.33;19.15;;;17.40;99.90;;;;;;5033573;28;20069;-80
2022/06/10 10:34:38;;;;;;;43.13;17.88;;;17.40;99.90;;;;;;5032744;28;20041;-86
2022/06/10 10:37:27;;;;;;;43.38;18.52;;;17.40;99.90;;;;;;5034841;28;20057;-81
2022/06/10 10:40:21;;;;;;;40.92;18.63;;;17.40;99.90;;;;;;5033559;28;20405;-83
2022/06/10 10:42:51;;;;;;;49.10;20.00;;;17.40;99.90;;;;;;5031989;28;20061;-82
2022/06/10 10:45:31;;;;;;;46.17;20.23;;;17.40;99.90;;;;;;5041714;28;20056;-82
2022/06/10 10:48:05;;;;;;;44.40;21.23;;;17.30;99.90;;;;;;5033190;28;20053;-81
2022/06/10 10:50:35;;;;;;;46.38;21.13;;;17.20;99.90;;;;;;5033149;28;20042;-81
2022/06/10 10:53:24;;;;;;;47.58;23.30;;;17.20;99.90;;;;;;5034589;28;20049;-81
2022/06/10 10:55:54;;;;;;;46.92;22.27;;;17.30;99.90;;;;;;5017075;28;20038;-82
2022/06/10 10:58:31;;;;;;;50.20;22.77;;;17.40;99.90;;;;;;5033117;28;20064;-83
2022/06/10 11:01:08;;;;;;;45.92;23.35;;;17.40;99.90;;;;;;5034223;28;20041;-82
2022/06/10 11:03:52;;;;;;;53.13;22.63;;;17.40;99.90;;;;;;5032926;28;20077;-81
2022/06/10 11:06:36;;;;;;;51.88;24.33;;;17.50;99.90;;;;;;5032838;28;20432;-83
2022/06/10 11:09:23;;;;;;;39.33;22.13;;;17.50;99.90;;;;;;5034289;28;20071;-82
2022/06/10 11:11:50;;;;;;;50.42;24.35;;;17.50;99.90;;;;;;5032770;28;20111;-82
2022/06/10 11:14:25;;;;;;;47.78;24.48;;;17.60;99.90;;;;;;5032800;28;20405;-83
2022/06/10 11:17:01;;;;;;;51.33;22.83;;;17.70;99.90;;;;;;5034138;28;20042;-82
2022/06/10 11:19:42;;;;;;;44.28;24.67;;;17.70;99.90;;;;;;5032884;28;20137;-83
2022/06/10 11:22:19;;;;;;;46.08;23.20;;;17.70;99.90;;;;;;5033902;28;20041;-82
2022/06/10 11:25:15;;;;;;;36.33;20.88;;;17.60;99.90;;;;;;5033738;28;20056;-82
2022/06/10 11:27:58;;;;;;;42.97;22.02;;;17.70;99.90;;;;;;5032407;28;20081;-82
2022/06/10 11:30:42;;;;;;;40.70;24.05;;;17.50;99.90;;;;;;5033973;28;20053;-81
2022/06/10 11:33:26;;;;;;;42.78;23.95;;;17.50;99.90;;;;;;5033703;28;20050;-82
2022/06/10 11:36:01;;;;;;;50.22;23.48;;;17.50;99.90;;;;;;5033763;28;20124;-82
2022/06/10 11:38:32;;;;;;;40.08;23.25;;;17.60;99.90;;;;;;5033297;28;20508;-82
2022/06/10 11:41:14;;;;;;;43.65;25.30;;;17.70;99.90;;;;;;5032621;28;20072;-82
2022/06/10 11:43:46;;;;;;;54.20;25.73;;;17.80;99.90;;;;;;5034037;28;20057;-85
2022/06/10 11:46:26;;;;;;;45.10;23.90;;;17.80;99.90;;;;;;5033679;28;20116;-81
2022/06/10 11:49:10;;;;;;;47.20;24.85;;;18.00;99.90;;;;;;5032398;28;20136;-81
2022/06/10 11:52:00;;;;;;;46.25;25.38;;;18.00;99.90;;;;;;5032144;28;20492;-82
2022/06/10 11:54:32;;;;;;;50.42;25.98;;;18.00;99.90;;;;;;5032037;28;20045;-82
2022/06/10 12:00:44;;;;;;;43.22;24.17;;;18.10;99.90;;;;;;5031155;28;20156;-88
2022/06/10 12:03:45;;;;;;;50.10;24.88;;;18.10;99.90;;;;;;5030781;28;20054;-82
2022/06/10 12:06:43;;;;;;;50.75;25.08;;;18.30;99.90;;;;;;5031979;28;20052;-82
2022/06/10 12:09:21;;;;;;;43.15;23.27;;;18.60;99.90;;;;;;5033673;28;20073;-83
2022/06/10 12:12:01;;;;;;;41.65;24.17;;;18.90;99.90;;;;;;5031932;28;20130;-84
2022/06/10 12:14:41;;;;;;;46.45;24.55;;;19.10;99.90;;;;;;5033370;28;20049;-81
2022/06/10 12:17:20;;;;;;;44.50;25.30;;;19.20;99.90;;;;;;5031722;28;20068;-83
2022/06/10 12:19:54;;;;;;;47.58;25.35;;;19.20;99.90;;;;;;5032998;28;20497;-81
2022/06/10 12:22:20;;;;;;;41.13;24.20;;;19.10;99.90;;;;;;5032069;28;20135;-81
2022/06/10 12:24:49;;;;;;;54.15;25.10;;;19.00;99.90;;;;;;5033003;28;20128;-82
2022/06/10 12:27:22;;;;;;;41.15;22.08;;;18.90;99.90;;;;;;5031920;28;20053;-80
2022/06/10 12:30:02;;;;;;;39.15;22.20;;;18.80;99.90;;;;;;5031935;28;20052;-81
2022/06/10 12:32:55;;;;;;;47.00;23.20;;;18.70;99.90;;;;;;5032876;28;20370;-81
2022/06/10 12:35:34;;;;;;;;;;;18.70;99.90;;;;;;5033272;28;20472;-81
2022/06/10 12:38:14;;;;;;;42.63;21.92;;;18.60;99.90;;;;;;5032586;28;20396;-81
2022/06/10 12:40:48;;;;;;;42.97;23.60;;;18.50;99.90;;;;;;5032996;28;20053;-80
2022/06/10 12:43:26;;;;;;;52.90;24.40;;;18.40;99.90;;;;;;5033223;28;20073;-81
2022/06/10 12:45:56;;;;;;;42.63;23.42;;;18.50;99.90;;;;;;5031840;28;20397;-81
2022/06/10 12:48:26;;;;;;;50.30;23.40;;;18.50;99.90;;;;;;5031567;28;20046;-80
2022/06/10 12:50:57;;;;;;;44.35;22.67;;;18.60;99.90;;;;;;5032797;28;20103;-79
2022/06/10 12:53:25;;;;;;;37.72;20.95;;;18.70;99.90;;;;;;5031723;28;20064;-80
2022/06/10 12:55:58;;;;;;;41.45;19.73;;;18.70;99.90;;;;;;5031442;28;20447;-80
2022/06/10 12:58:40;;;;;;;36.40;19.17;;;18.70;99.90;;;;;;5032834;28;20045;-80
2022/06/10 13:01:14;;;;;;;35.35;17.27;;;18.70;99.90;;;;;;5031493;28;20128;-80
2022/06/10 13:03:41;;;;;;;31.98;16.80;;;18.60;99.90;;;;;;5032634;28;20136;-80
2022/06/10 13:06:52;;;;;;;31.35;17.08;;;18.70;99.90;;;;;;5032566;28;20080;-80
2022/06/10 13:09:44;;;;;;;35.72;16.60;;;18.80;99.90;;;;;;5028252;28;20140;-80
2022/06/10 13:12:10;;;;;;;38.38;17.40;;;18.90;99.90;;;;;;5030520;28;20571;-80
2022/06/10 13:15:01;;;;;;;33.13;16.50;;;19.10;99.90;;;;;;5032590;28;20037;-80
2022/06/10 13:17:29;;;;;;;24.67;13.57;;;19.40;99.90;;;;;;5033596;28;21924;-80